createdAt,value
2023-01-07T00:04:46.131Z,100997.94
2023-01-07T00:09:50.918Z,100994.59
2023-01-07T00:14:56.158Z,100989.75
2023-01-07T00:20:01.575Z,101010.31
2023-01-07T00:25:06.635Z,101011.94
2023-01-07T00:30:11.220Z,101020.91
2023-01-07T00:35:25.915Z,100981.22
2023-01-07T00:40:32.268Z,101004.69
2023-01-07T00:45:37.463Z,100977.63
2023-01-07T00:50:42.071Z,101004.19
2023-01-07T00:55:50.485Z,101008.47
2023-01-07T01:01:01.135Z,101005.50
2023-01-07T01:06:08.050Z,101012.56
2023-01-07T01:11:14.535Z,101008.66
2023-01-07T01:16:19.560Z,100981.16
2023-01-07T01:21:26.055Z,100953.56
2023-01-07T01:26:29.792Z,100985.78
2023-01-07T01:31:34.560Z,101007.78
2023-01-07T01:36:44.526Z,101000.75
2023-01-07T01:41:49.624Z,101006.94
2023-01-07T01:46:55.699Z,100988.09
2023-01-07T01:52:09.773Z,100993.16
2023-01-07T01:57:22.497Z,100996.66
2023-01-07T02:02:40.551Z,100981.06
2023-01-07T02:07:44.702Z,101001.78
2023-01-07T02:13:24.433Z,100990.63
2023-01-07T02:18:48.267Z,100993.03
2023-01-07T02:23:59.527Z,100994.91
2023-01-07T02:29:20.490Z,100997.22
2023-01-07T02:34:56.486Z,100995.13
2023-01-07T02:40:49.731Z,100992.41
2023-01-07T02:46:05.520Z,100992.22
2023-01-07T02:51:13.360Z,100979.44
2023-01-07T02:56:43.131Z,100988.84
2023-01-07T03:02:11.564Z,100976.03
2023-01-07T03:07:27.547Z,100986.56
2023-01-07T03:12:49.557Z,100988.00
2023-01-07T03:18:17.078Z,100968.53
2023-01-07T03:23:27.608Z,100970.88
2023-01-07T03:28:41.534Z,100970.53
2023-01-07T03:34:02.497Z,100966.88
2023-01-07T03:39:12.665Z,100975.16
2023-01-07T03:44:17.923Z,100933.72
2023-01-07T03:49:24.748Z,100973.53
2023-01-07T03:54:59.944Z,100958.50
2023-01-07T04:00:12.597Z,100954.94
2023-01-07T04:05:27.406Z,100940.63
2023-01-07T04:10:33.110Z,100956.41
2023-01-07T04:15:39.492Z,100947.00
2023-01-07T04:20:49.935Z,100959.69
2023-01-07T04:25:55.518Z,100957.41
2023-01-07T04:31:04.439Z,100965.59
2023-01-07T04:36:14.152Z,100962.88
2023-01-07T04:41:18.306Z,100960.00
2023-01-07T04:46:23.604Z,100957.88
2023-01-07T04:51:29.550Z,100952.03
2023-01-07T04:56:35.528Z,100946.19
2023-01-07T05:01:41.212Z,100939.91
2023-01-07T05:06:48.828Z,100931.16
2023-01-07T05:11:56.165Z,100887.16
2023-01-07T05:17:01.091Z,100936.78
2023-01-07T05:22:08.947Z,100924.63
2023-01-07T05:27:17.522Z,100928.00
2023-01-07T05:32:24.620Z,100923.56
2023-01-07T05:37:38.209Z,100919.00
2023-01-07T05:42:45.803Z,100904.56
2023-01-07T05:47:51.655Z,100890.88
2023-01-07T05:52:55.415Z,100893.81
2023-01-07T05:58:05.412Z,100895.19
2023-01-07T06:03:11.925Z,100877.13
2023-01-07T06:08:21.538Z,100853.06
2023-01-07T06:13:25.489Z,100865.06
2023-01-07T06:18:30.598Z,100866.16
2023-01-07T06:23:35.512Z,100848.09
2023-01-07T06:28:39.314Z,100852.84
2023-01-07T06:33:43.377Z,100843.38
2023-01-07T06:38:49.336Z,100839.69
2023-01-07T06:43:55.847Z,100840.91
2023-01-07T06:49:04.156Z,100822.84
2023-01-07T06:54:11.798Z,100830.78
2023-01-07T06:59:16.566Z,100833.66
2023-01-07T07:04:23.783Z,100819.81
2023-01-07T07:09:28.323Z,100821.19
2023-01-07T07:14:34.434Z,100803.34
2023-01-07T07:19:39.971Z,100798.88
2023-01-07T07:24:48.551Z,100790.03
2023-01-07T07:29:52.505Z,100781.13
2023-01-07T07:34:56.917Z,100766.16
2023-01-07T07:40:01.637Z,100760.06
2023-01-07T07:45:09.058Z,100754.78
2023-01-07T07:50:15.001Z,100750.38
2023-01-07T07:55:26.110Z,100747.59
2023-01-07T08:00:34.812Z,100744.66
2023-01-07T08:05:43.687Z,100740.03
2023-01-07T08:10:50.893Z,100737.00
2023-01-07T08:15:54.876Z,100717.91
2023-01-07T08:21:01.455Z,100711.38
2023-01-07T08:26:09.821Z,100709.88
2023-01-07T08:31:22.262Z,100710.06
2023-01-07T08:36:26.301Z,100690.78
2023-01-07T08:41:31.406Z,100694.38
2023-01-07T08:46:40.509Z,100671.75
2023-01-07T08:51:45.576Z,100662.63
2023-01-07T08:56:50.153Z,100660.19
2023-01-07T09:01:54.226Z,100640.06
2023-01-07T09:06:59.097Z,100635.06
2023-01-07T09:12:10.754Z,100627.53
2023-01-07T09:17:16.475Z,100630.09
2023-01-07T09:22:21.295Z,100630.13
2023-01-07T09:27:32.071Z,100628.50
2023-01-07T09:32:37.766Z,100631.91
2023-01-07T09:37:44.280Z,100623.50
2023-01-07T09:43:10.515Z,100615.94
2023-01-07T09:48:38.148Z,100619.34
2023-01-07T09:53:51.099Z,100628.66
2023-01-07T09:59:00.118Z,100623.59
2023-01-07T10:04:24.329Z,100608.41
2023-01-07T10:10:13.760Z,100605.06
2023-01-07T10:15:28.463Z,100611.88
2023-01-07T10:20:57.685Z,100597.56
2023-01-07T10:26:05.066Z,100592.53
2023-01-07T10:31:22.407Z,100602.69
2023-01-07T10:36:59.329Z,100601.03
2023-01-07T10:42:35.256Z,100586.66
2023-01-07T10:47:51.729Z,100582.44
2023-01-07T10:53:23.315Z,100572.28
2023-01-07T10:58:41.505Z,100560.50
2023-01-07T11:03:46.286Z,100549.50
2023-01-07T11:08:50.882Z,100542.72
2023-01-07T11:14:08.135Z,100507.22
2023-01-07T11:19:15.716Z,100535.94
2023-01-07T11:24:20.669Z,100526.63
2023-01-07T11:29:28.489Z,100527.47
2023-01-07T11:34:49.715Z,100523.25
2023-01-07T11:40:04.336Z,100519.84
2023-01-07T11:45:16.129Z,100527.41
2023-01-07T11:50:36.505Z,100512.13
2023-01-07T11:55:41.187Z,100501.09
2023-01-07T12:00:47.999Z,100490.88
2023-01-07T12:05:58.923Z,100485.78
2023-01-07T12:11:15.120Z,100491.63
2023-01-07T12:16:31.410Z,100483.94
2023-01-07T12:22:04.651Z,100469.44
2023-01-07T12:27:54.870Z,100467.69
2023-01-07T12:33:35.621Z,100443.91
2023-01-07T12:38:55.683Z,100451.41
2023-01-07T12:44:20.741Z,100436.06
2023-01-07T12:49:45.942Z,100445.28
2023-01-07T12:55:03.912Z,100431.63
2023-01-07T13:00:27.440Z,100439.97
2023-01-07T13:05:47.751Z,100441.53
2023-01-07T13:11:49.677Z,100436.28
2023-01-07T13:17:17.952Z,100421.72
2023-01-07T13:22:41.824Z,100417.41
2023-01-07T13:28:23.223Z,100402.91
2023-01-07T13:33:48.113Z,100403.63
2023-01-07T13:39:17.414Z,100389.91
2023-01-07T13:45:12.472Z,100379.63
2023-01-07T13:50:58.949Z,100379.56
2023-01-07T13:56:40.508Z,100360.88
2023-01-07T14:02:24.120Z,100354.91
2023-01-07T14:07:34.572Z,100348.06
2023-01-07T14:13:21.345Z,100336.91
2023-01-07T14:18:38.301Z,100333.44
2023-01-07T14:24:12.756Z,100329.19
2023-01-07T14:29:43.180Z,100319.78
2023-01-07T14:34:59.270Z,100312.88
2023-01-07T14:40:36.245Z,100307.69
2023-01-07T14:45:41.298Z,100296.56
2023-01-07T14:51:07.226Z,100305.03
2023-01-07T14:56:21.656Z,100291.28
2023-01-07T15:01:48.415Z,100292.06
2023-01-07T15:06:57.959Z,100283.44
2023-01-07T15:12:27.939Z,100274.03
2023-01-07T15:17:35.047Z,100269.66
2023-01-07T15:22:55.711Z,100255.09
2023-01-07T15:28:19.311Z,100247.44
2023-01-07T15:33:46.666Z,100252.53
2023-01-07T15:38:54.626Z,100247.34
2023-01-07T15:44:09.679Z,100237.97
2023-01-07T15:49:14.858Z,100229.47
2023-01-07T15:54:40.688Z,100241.38
2023-01-07T15:59:49.477Z,100248.25
2023-01-07T16:04:58.422Z,100238.03
2023-01-07T16:10:01.988Z,100242.28
2023-01-07T16:15:31.495Z,100243.19
2023-01-07T16:20:50.189Z,100229.59
2023-01-07T16:26:21.229Z,100231.22
2023-01-07T16:31:30.969Z,100219.28
2023-01-07T16:36:44.143Z,100215.84
2023-01-07T16:41:48.208Z,100211.50
2023-01-07T16:47:09.034Z,100196.16
2023-01-07T16:52:15.906Z,100203.78
2023-01-07T16:57:30.515Z,100200.31
2023-01-07T17:03:00.714Z,100203.59
2023-01-07T17:08:23.496Z,100204.50
2023-01-07T17:13:42.084Z,100200.13
2023-01-07T17:18:54.091Z,100195.00
2023-01-07T17:24:02.655Z,100188.91
2023-01-07T17:29:13.801Z,100187.94
2023-01-07T17:34:19.356Z,100178.59
2023-01-07T17:39:24.825Z,100182.84
2023-01-07T17:44:28.688Z,100171.63
2023-01-07T17:49:33.623Z,100142.84
2023-01-07T17:54:40.502Z,100169.66
2023-01-07T17:59:49.671Z,100166.19
2023-01-07T18:04:54.467Z,100165.94
2023-01-07T18:09:59.956Z,100152.06
2023-01-07T18:15:16.543Z,100142.44
2023-01-07T18:20:24.288Z,100138.88
2023-01-07T18:25:32.477Z,100145.56
2023-01-07T18:30:40.493Z,100154.03
2023-01-07T18:35:45.332Z,100131.75
2023-01-07T18:40:50.466Z,100137.53
2023-01-07T18:45:55.103Z,100122.84
2023-01-07T18:50:59.789Z,100114.13
2023-01-07T18:56:09.243Z,100116.69
2023-01-07T19:01:15.346Z,100132.59
2023-01-07T19:06:19.773Z,100117.09
2023-01-07T19:11:23.727Z,100119.50
2023-01-07T19:16:28.584Z,100114.28
2023-01-07T19:21:33.307Z,100098.00
2023-01-07T19:26:38.610Z,100090.19
2023-01-07T19:31:46.234Z,100084.28
2023-01-07T19:36:49.963Z,100083.19
2023-01-07T19:41:53.878Z,100073.69
2023-01-07T19:46:59.523Z,100073.50
2023-01-07T19:52:06.191Z,100070.72
2023-01-07T19:57:10.254Z,100068.91
2023-01-07T20:02:15.460Z,100072.16
2023-01-07T20:07:19.481Z,100049.81
2023-01-07T20:12:25.055Z,100051.44
2023-01-07T20:17:30.439Z,100054.75
2023-01-07T20:22:37.383Z,100038.50
2023-01-07T20:27:41.415Z,100021.31
2023-01-07T20:32:47.681Z,100032.97
2023-01-07T20:37:51.368Z,100022.59
2023-01-07T20:42:59.585Z,100023.31
2023-01-07T20:48:05.736Z,100015.44
2023-01-07T20:53:12.086Z,100008.59
2023-01-07T20:58:16.861Z,100003.47
2023-01-07T21:03:20.596Z,99985.53
2023-01-07T21:08:27.026Z,99989.72
2023-01-07T21:13:32.456Z,99967.50
2023-01-07T21:18:39.660Z,99958.84
2023-01-07T21:23:49.583Z,99949.59
2023-01-07T21:28:56.866Z,99948.50
2023-01-07T21:34:01.603Z,99941.66
2023-01-07T21:39:06.496Z,99944.13
2023-01-07T21:44:14.436Z,99944.03
2023-01-07T21:49:20.281Z,99935.34
2023-01-07T21:54:24.253Z,99938.69
2023-01-07T21:59:28.117Z,99936.88
2023-01-07T22:04:32.717Z,99923.88
2023-01-07T22:09:36.477Z,99927.28
2023-01-07T22:14:40.875Z,99923.00
2023-01-07T22:19:44.790Z,99911.97
2023-01-07T22:24:49.429Z,99916.13
2023-01-07T22:29:57.860Z,99911.91
2023-01-07T22:35:04.520Z,99909.34
2023-01-07T22:40:10.267Z,99905.63
2023-01-07T22:45:22.888Z,99908.06
2023-01-07T22:50:28.904Z,99915.69
2023-01-07T22:55:36.114Z,99893.50
2023-01-07T23:00:52.790Z,99895.06
2023-01-07T23:05:58.499Z,99900.16
2023-01-07T23:11:02.543Z,99894.19
2023-01-07T23:16:10.356Z,99893.28
2023-01-07T23:21:15.496Z,99877.00
2023-01-07T23:26:22.587Z,99887.22
2023-01-07T23:31:27.736Z,99869.25
2023-01-07T23:36:33.097Z,99873.56
2023-01-07T23:41:38.677Z,99873.56
2023-01-07T23:46:43.138Z,99881.13
2023-01-07T23:51:50.414Z,99863.13
2023-01-07T23:56:57.508Z,99870.75
